October 28, 2015

Incident at CALGARY INTL AB (CYYC)

At 0611Z, a Jazz de Havilland DHC-8-400 (JZA8379) from Calgary, AB (CYYC) to Fort McMurray, AB (CYMM) reported receiving a resolution advisory (RA) on visual flight rules (VFR) traffic a Geodesy Remote Sensing Piper PA-46-310P (C-FWEM) on a local flight from Calgary, AB (CYYC). No impact to the operation.

April 8, 2015

Incident at CALGARY INTL AB (CYYC)

A Jazz Bombardier CL-600-2D24 (JZA8379) from Calgary, AB (CYYC) to Fort McMurray, AB (CYMM) taxied out of the main apron onto Taxiway G without calling ground and without receiving clearance. First contact with ground was on Taxiway G approaching Taxiway J. No operational impact.

July 14, 2014

Incident at FORT MCMURRAY AB (CYMM) (ATM - weather observation systems)

Automated Weather Observation System (AWOS) not reporting representative visibilities. METAR CYMM 140626Z AUTO 13007KT 3/8SM HZ 14/07 A3024 RMK CLD MISG SLP248. Following the arrival advisory to a Jazz Bombardier CL600 2D24 (JZA8379) from Calgary, AB (CYYC) to Fort McMurray, AB (CYMM), a WestJet Boeing 737 700 (WJA308) from Fort McMurray, AB (CYMM) to Toronto, ON (CYYZ) (on the ground at CYMM) reported sky clear and unlimited visibility at 0647Z. JZA8379 landed at 0658Z and taxied B J to apron 1. WJA308 taxied for departure runway 07 at 0704Z and again reported sky clear and unlimited visibility. Queried TK84 +2 at 1001Z, reported sky clear and good visibility. METAR CYMM 141000Z AUTO 09006KT 1/8SM 12/06 A3025 RMK CLD MISG SLP250=

July 7, 2014

Incident at CALGARY INTL AB (CYYC)

The Tower overshot an Air Canada Airbus A321-211 (ACA228), from Vancouver, BC (CYVR) to Calgary, AB (CYYC), from 3 mile final for Runway 35L due to the Tower being unable to contact a Jazz Bombardier CL600 2D24 (RJ900) (JZA8379), from Calgary, AB (CYYC) to Fort McMurray, AB (CYMM), in position. No other impact to operation.

January 13, 2013

Incident at FORT MCMURRAY AB (CYMM)

A Jazz Aviation Canadair RJ 200 (operating as JZA8379) on a IFR flight did not report off runway CYMM. Ramp check verified JZA8379 on main apron. No operational impact.

August 21, 2006

Incident at CALGARY INTL AB (CYYC)

On departure, JAZ8379 experienced a total flap failure. Aircraft returned to departure airport and landed safely at 1447z. ARFF responded.